sensor_id;sensor_type;location;lat;lon;timestamp;temperature;humidity
5846;DHT22;2949;50.778;7.094;2023-06-04T03:22:51;14.50;99.90
5846;DHT22;2949;50.778;7.094;2023-06-04T03:25:16;9.20;99.90
5846;DHT22;2949;50.778;7.094;2023-06-04T03:27:42;8.80;99.90
5846;DHT22;2949;50.778;7.094;2023-06-04T03:30:08;8.80;99.90
5846;DHT22;2949;50.778;7.094;2023-06-04T03:32:34;8.70;99.90
5846;DHT22;2949;50.778;7.094;2023-06-04T03:35:01;8.70;99.90
5846;DHT22;2949;50.778;7.094;2023-06-04T03:37:26;8.70;99.90
5846;DHT22;2949;50.778;7.094;2023-06-04T03:39:53;8.70;99.90
5846;DHT22;2949;50.778;7.094;2023-06-04T03:42:18;8.60;99.90
5846;DHT22;2949;50.778;7.094;2023-06-04T03:44:44;8.70;99.90
5846;DHT22;2949;50.778;7.094;2023-06-04T03:47:10;8.70;99.90
5846;DHT22;2949;50.778;7.094;2023-06-04T03:49:35;8.80;99.90
5846;DHT22;2949;50.778;7.094;2023-06-04T03:52:01;8.80;99.90
5846;DHT22;2949;50.778;7.094;2023-06-04T03:54:26;8.90;99.90
5846;DHT22;2949;50.778;7.094;2023-06-04T03:56:52;8.90;99.90
5846;DHT22;2949;50.778;7.094;2023-06-04T03:59:17;8.80;99.90
5846;DHT22;2949;50.778;7.094;2023-06-04T04:01:43;8.90;99.90
5846;DHT22;2949;50.778;7.094;2023-06-04T04:04:09;8.90;99.90
5846;DHT22;2949;50.778;7.094;2023-06-04T04:06:34;9.00;99.90
5846;DHT22;2949;50.778;7.094;2023-06-04T04:09:01;9.00;99.90
5846;DHT22;2949;50.778;7.094;2023-06-04T04:11:28;9.10;99.90
5846;DHT22;2949;50.778;7.094;2023-06-04T04:13:53;9.20;99.90
5846;DHT22;2949;50.778;7.094;2023-06-04T04:16:19;9.30;99.90
5846;DHT22;2949;50.778;7.094;2023-06-04T04:18:45;9.40;99.90
5846;DHT22;2949;50.778;7.094;2023-06-04T04:21:11;9.40;99.90
5846;DHT22;2949;50.778;7.094;2023-06-04T04:23:38;9.50;99.90
5846;DHT22;2949;50.778;7.094;2023-06-04T04:26:08;9.60;99.90
5846;DHT22;2949;50.778;7.094;2023-06-04T04:28:35;9.60;99.90
5846;DHT22;2949;50.778;7.094;2023-06-04T04:31:01;9.80;99.90
5846;DHT22;2949;50.778;7.094;2023-06-04T04:33:28;9.90;99.90
5846;DHT22;2949;50.778;7.094;2023-06-04T04:36:05;10.00;99.90
5846;DHT22;2949;50.778;7.094;2023-06-04T04:38:30;10.10;99.90
5846;DHT22;2949;50.778;7.094;2023-06-04T04:40:58;10.30;99.90
5846;DHT22;2949;50.778;7.094;2023-06-04T04:43:33;10.40;99.90
5846;DHT22;2949;50.778;7.094;2023-06-04T04:45:59;10.60;99.90
5846;DHT22;2949;50.778;7.094;2023-06-04T04:48:25;10.70;99.90
5846;DHT22;2949;50.778;7.094;2023-06-04T04:50:51;10.80;99.90
5846;DHT22;2949;50.778;7.094;2023-06-04T04:53:16;11.00;99.90
5846;DHT22;2949;50.778;7.094;2023-06-04T04:55:42;11.10;99.90
5846;DHT22;2949;50.778;7.094;2023-06-04T04:58:07;11.20;99.90
5846;DHT22;2949;50.778;7.094;2023-06-04T05:00:33;11.30;99.90
5846;DHT22;2949;50.778;7.094;2023-06-04T05:02:58;11.50;99.90
5846;DHT22;2949;50.778;7.094;2023-06-04T05:05:24;11.60;99.90
5846;DHT22;2949;50.778;7.094;2023-06-04T05:07:49;11.70;99.90
5846;DHT22;2949;50.778;7.094;2023-06-04T05:10:16;11.90;99.90
5846;DHT22;2949;50.778;7.094;2023-06-04T05:15:18;12.20;99.90
5846;DHT22;2949;50.778;7.094;2023-06-04T05:17:45;12.30;99.90
5846;DHT22;2949;50.778;7.094;2023-06-04T05:20:12;12.50;99.90
5846;DHT22;2949;50.778;7.094;2023-06-04T05:22:38;12.70;99.90
5846;DHT22;2949;50.778;7.094;2023-06-04T05:25:04;12.90;99.90
5846;DHT22;2949;50.778;7.094;2023-06-04T05:27:31;13.10;99.90
5846;DHT22;2949;50.778;7.094;2023-06-04T05:29:59;13.30;99.90
5846;DHT22;2949;50.778;7.094;2023-06-04T05:34:54;13.60;99.90
